Time;durP1;ratioP1;P1;durP2;ratioP2;P2;SDS_P1;SDS_P2;PMS_P1;PMS_P2;Temp;Humidity;BMP_temperature;BMP_pressure;BME280_temperature;BME280_humidity;BME280_pressure;Samples;Min_cycle;Max_cycle;Signal;HPM_P1;HPM_P2
2021/01/31 00:00:55;;;;;;;14.87;11.80;;;;;;;-1.75;70.55;96995.87;1804285;79;21504;-75
2021/01/31 00:03:27;;;;;;;13.68;10.55;;;;;;;-1.77;70.87;97000.35;1804268;79;21000;-75
2021/01/31 00:05:59;;;;;;;16.23;12.07;;;;;;;-1.79;70.88;97005.68;1804329;79;21375;-75
2021/01/31 00:08:27;;;;;;;12.47;10.35;;;;;;;-1.78;71.00;97006.53;1804372;79;20925;-75
2021/01/31 00:10:56;;;;;;;13.50;11.18;;;;;;;-1.79;70.75;97014.89;1804298;79;20937;-75
2021/01/31 00:13:26;;;;;;;12.90;11.25;;;;;;;-1.78;70.77;97006.53;1804272;79;21000;-75
2021/01/31 00:15:54;;;;;;;17.02;11.75;;;;;;;-1.78;70.87;97011.80;1804474;79;20964;-74
2021/01/31 00:18:25;;;;;;;14.83;10.85;;;;;;;-1.78;70.77;97019.69;1804327;79;21356;-75
2021/01/31 00:20:54;;;;;;;16.12;11.93;;;;;;;-1.79;70.97;97024.11;1804426;79;21008;-74
2021/01/31 00:23:22;;;;;;;13.38;9.48;;;;;;;-1.79;71.07;97023.27;1804548;79;21433;-75
2021/01/31 00:25:49;;;;;;;15.60;11.35;;;;;;;-1.78;71.17;97018.38;1804392;79;20905;-74
2021/01/31 00:28:19;;;;;;;11.97;10.15;;;;;;;-1.79;71.01;97021.47;1804402;79;20877;-74
2021/01/31 00:30:48;;;;;;;13.72;10.43;;;;;;;-1.78;71.02;97031.09;1804429;79;21241;-74
2021/01/31 00:33:21;;;;;;;15.32;11.90;;;;;;;-1.78;71.29;97019.69;1804329;79;20986;-74
2021/01/31 00:35:50;;;;;;;14.28;10.10;;;;;;;-1.77;71.16;97029.30;1804116;78;20988;-74
2021/01/31 00:38:19;;;;;;;12.95;10.82;;;;;;;-1.76;71.26;97033.66;1804361;79;20909;-74
2021/01/31 00:40:47;;;;;;;13.00;9.40;;;;;;;-1.74;71.16;97039.71;1804455;79;20917;-74
2021/01/31 00:43:15;;;;;;;12.37;10.40;;;;;;;-1.73;71.40;97037.02;1804522;79;21583;-74
2021/01/31 00:45:43;;;;;;;14.23;10.95;;;;;;;-1.71;71.35;97036.95;1804287;79;21614;-74
2021/01/31 00:48:11;;;;;;;15.35;11.30;;;;;;;-1.70;71.17;97037.36;1804351;79;20952;-75
2021/01/31 00:50:40;;;;;;;12.93;9.48;;;;;;;-1.68;71.20;97031.55;1804503;79;21458;-74
2021/01/31 00:53:10;;;;;;;14.33;10.53;;;;;;;-1.68;71.06;97035.03;1804287;79;20920;-74
2021/01/31 00:55:38;;;;;;;12.25;9.45;;;;;;;-1.67;70.72;97031.50;1804419;79;21339;-74
2021/01/31 00:58:06;;;;;;;13.72;11.10;;;;;;;-1.69;70.63;97032.47;1804229;79;20980;-74
2021/01/31 01:00:37;;;;;;;13.83;9.83;;;;;;;-1.70;70.73;97041.30;1804527;79;20960;-74
2021/01/31 01:03:07;;;;;;;16.90;12.40;;;;;;;-1.73;70.78;97043.59;1804341;79;20976;-74
2021/01/31 01:05:46;;;;;;;17.90;13.03;;;;;;;-1.74;70.80;97044.97;1802897;79;21362;-74
2021/01/31 01:08:13;;;;;;;12.18;9.93;;;;;;;-1.75;70.94;97038.87;1804382;79;22448;-74
2021/01/31 01:10:41;;;;;;;17.05;11.18;;;;;;;-1.77;71.03;97039.84;1804451;79;20929;-74
2021/01/31 01:13:09;;;;;;;13.53;10.48;;;;;;;-1.77;71.10;97046.42;1804400;79;20920;-74
2021/01/31 01:15:36;;;;;;;16.97;13.10;;;;;;;-1.81;71.28;97047.02;1804383;79;21548;-74
2021/01/31 01:18:04;;;;;;;16.02;12.78;;;;;;;-1.86;71.39;97044.57;1804297;79;20995;-74
2021/01/31 01:20:31;;;;;;;16.82;13.18;;;;;;;-1.87;71.54;97050.74;1804532;79;22683;-74
2021/01/31 01:22:59;;;;;;;17.10;12.55;;;;;;;-1.85;71.76;97055.47;1804327;79;20936;-74
2021/01/31 01:25:28;;;;;;;15.58;11.90;;;;;;;-1.85;71.91;97058.58;1804442;79;20905;-74
2021/01/31 01:27:55;;;;;;;16.40;13.30;;;;;;;-1.84;71.85;97063.78;1804282;79;20976;-74
2021/01/31 01:30:26;;;;;;;14.13;11.15;;;;;;;-1.84;71.95;97066.41;1804425;79;20965;-74
2021/01/31 01:32:55;;;;;;;18.07;14.27;;;;;;;-1.83;71.96;97062.88;1804699;78;22299;-74
2021/01/31 01:35:22;;;;;;;18.15;13.15;;;;;;;-1.83;72.12;97064.63;1804318;79;20976;-75
2021/01/31 01:37:50;;;;;;;16.12;12.43;;;;;;;-1.84;72.21;97067.72;1804398;77;21362;-74
2021/01/31 01:40:23;;;;;;;16.40;12.93;;;;;;;-1.86;72.08;97061.67;1804442;79;21328;-74
2021/01/31 01:42:50;;;;;;;17.90;12.70;;;;;;;-1.84;72.21;97070.36;1804735;79;20916;-74
2021/01/31 01:45:19;;;;;;;18.05;13.20;;;;;;;-1.83;72.19;97066.81;1804394;78;22385;-74
2021/01/31 01:47:50;;;;;;;20.55;14.98;;;;;;;-1.82;72.48;97064.56;1804212;79;20952;-74
2021/01/31 01:50:41;;;;;;;19.27;14.30;;;;;;;-1.82;72.60;97059.30;1804392;78;20929;-74
2021/01/31 01:53:09;;;;;;;16.70;12.75;;;;;;;-1.79;72.46;97068.86;1775193;79;20920;-75
2021/01/31 01:56:01;;;;;;;17.37;13.50;;;;;;;-1.79;72.60;97070.64;1750300;79;20901;-75
2021/01/31 01:58:29;;;;;;;18.30;13.48;;;;;;;-1.77;72.66;97072.73;1804453;79;22672;-73
2021/01/31 02:00:56;;;;;;;17.62;13.50;;;;;;;-1.78;72.57;97071.02;1804270;79;20980;-74
2021/01/31 02:03:26;;;;;;;19.20;12.68;;;;;;;-1.78;72.65;97073.65;1804348;79;20996;-73
2021/01/31 02:05:59;;;;;;;19.92;14.55;;;;;;;-1.78;72.52;97070.58;1804437;79;21410;-74
2021/01/31 02:08:27;;;;;;;14.93;10.80;;;;;;;-1.78;72.60;97067.06;1804630;79;20913;-73
2021/01/31 02:10:55;;;;;;;18.30;13.65;;;;;;;-1.79;72.53;97068.86;1804306;79;21354;-74
2021/01/31 02:13:23;;;;;;;16.17;12.18;;;;;;;-1.80;72.46;97073.71;1804281;79;21409;-74
2021/01/31 02:15:52;;;;;;;16.60;11.95;;;;;;;-1.82;72.50;97074.24;1804336;79;20917;-74
2021/01/31 02:18:50;;;;;;;20.10;14.93;;;;;;;-1.86;72.68;97075.27;1804290;79;20869;-74
2021/01/31 02:21:56;;;;;;;19.57;13.53;;;;;;;-1.85;72.88;97082.27;1803967;79;20926;-74
2021/01/31 02:24:42;;;;;;;21.52;14.65;;;;;;;-1.86;72.92;97083.17;1804368;79;21420;-73
2021/01/31 02:27:29;;;;;;;18.15;14.20;;;;;;;-1.87;73.14;97088.91;1804306;79;20928;-73
2021/01/31 02:30:32;;;;;;;19.05;14.70;;;;;;;-1.88;73.17;97089.81;1804410;79;20873;-74
2021/01/31 02:33:38;;;;;;;18.67;14.25;;;;;;;-1.86;73.33;97097.65;1803826;79;21345;-73
2021/01/31 02:36:27;;;;;;;17.52;12.93;;;;;;;-1.87;73.48;97098.12;1804126;78;20975;-75
2021/01/31 02:39:02;;;;;;;19.17;14.23;;;;;;;-1.86;73.55;97102.91;1797914;79;22264;-74
2021/01/31 02:41:35;;;;;;;17.20;13.60;;;;;;;-1.86;73.73;97113.00;1797705;79;20933;-74
2021/01/31 02:44:07;;;;;;;17.75;12.75;;;;;;;-1.86;73.88;97106.42;1798011;79;21032;-74
2021/01/31 02:46:49;;;;;;;12.15;9.55;;;;;;;-1.86;73.90;97110.38;1798050;79;21414;-74
2021/01/31 02:49:31;;;;;;;18.57;13.80;;;;;;;-1.87;73.89;97107.80;1797837;79;20921;-73
2021/01/31 02:52:18;;;;;;;17.82;14.33;;;;;;;-1.89;73.76;97106.55;1797854;79;21259;-74
2021/01/31 02:54:58;;;;;;;21.57;15.95;;;;;;;-1.92;73.74;97111.92;1797370;79;20956;-73
2021/01/31 02:57:35;;;;;;;20.27;15.25;;;;;;;-1.93;73.75;97122.05;1797881;79;21421;-73
2021/01/31 03:00:16;;;;;;;20.68;15.85;;;;;;;-1.96;73.85;97119.53;1797682;79;21067;-73
2021/01/31 03:03:06;;;;;;;19.40;14.37;;;;;;;-1.96;73.93;97116.91;1798108;79;20988;-74
2021/01/31 03:05:37;;;;;;;20.90;15.28;;;;;;;-1.95;73.93;97119.95;1797843;79;21202;-73
2021/01/31 03:08:17;;;;;;;20.92;15.45;;;;;;;-1.97;73.77;97117.84;1797716;79;20941;-73
2021/01/31 03:10:51;;;;;;;23.73;15.03;;;;;;;-1.95;73.77;97126.52;1797931;79;20972;-74
2021/01/31 03:13:26;;;;;;;20.08;14.58;;;;;;;-1.93;73.80;97125.15;1797784;79;20905;-72
2021/01/31 03:16:07;;;;;;;20.75;15.72;;;;;;;-1.95;73.60;97123.89;1797836;79;20976;-73
2021/01/31 03:18:46;;;;;;;17.60;13.65;;;;;;;-1.94;73.61;97130.88;1797821;79;21392;-73
2021/01/31 03:21:22;;;;;;;17.92;14.78;;;;;;;-1.94;73.55;97133.52;1797799;79;20952;-72
2021/01/31 03:24:29;;;;;;;18.85;14.40;;;;;;;-1.93;73.56;97133.89;1797814;79;20917;-73
2021/01/31 03:27:10;;;;;;;23.25;15.78;;;;;;;-1.92;73.26;97136.09;1797588;79;21583;-73
2021/01/31 03:29:40;;;;;;;;;;;;;;;-1.92;73.13;97134.30;1800524;79;20893;-73
2021/01/31 03:32:14;;;;;;;23.35;15.53;;;;;;;-1.91;73.04;97142.57;1797956;79;21801;-74
2021/01/31 03:35:03;;;;;;;22.52;15.00;;;;;;;-1.93;73.12;97147.05;1796649;79;20964;-75
2021/01/31 03:37:39;;;;;;;22.42;15.95;;;;;;;-1.95;73.19;97146.27;1800481;79;20909;-75
2021/01/31 03:40:07;;;;;;;19.50;14.05;;;;;;;-1.96;73.24;97140.59;1775384;79;20913;-73
2021/01/31 03:42:35;;;;;;;19.57;15.65;;;;;;;-1.96;73.23;97147.17;1804401;79;21402;-74
2021/01/31 03:45:06;;;;;;;23.57;17.12;;;;;;;-1.97;73.26;97148.10;1804315;79;21138;-74
2021/01/31 03:48:01;;;;;;;23.38;16.70;;;;;;;-1.97;73.32;97157.31;1804370;79;20992;-74
2021/01/31 03:50:29;;;;;;;25.72;18.32;;;;;;;-2.00;73.30;97157.44;1804418;79;20913;-73
2021/01/31 03:52:58;;;;;;;26.48;17.80;;;;;;;-2.02;73.40;97154.86;1804436;79;20916;-73
2021/01/31 03:55:26;;;;;;;26.73;17.98;;;;;;;-2.02;73.53;97153.98;1775563;79;20957;-73
2021/01/31 03:58:01;;;;;;;26.12;18.65;;;;;;;-2.01;73.63;97154.39;1804506;79;22259;-73
2021/01/31 04:00:32;;;;;;;25.82;19.00;;;;;;;-2.02;73.66;97153.98;1804457;79;21437;-74
2021/01/31 04:03:08;;;;;;;23.60;17.07;;;;;;;-2.02;73.61;97157.93;1804522;79;21295;-74
2021/01/31 04:05:36;;;;;;;21.75;16.12;;;;;;;-2.01;73.67;97159.66;1800401;79;20983;-75
2021/01/31 04:08:07;;;;;;;25.65;16.75;;;;;;;-2.02;73.69;97153.98;1804446;79;20960;-74
2021/01/31 04:10:34;;;;;;;24.77;18.00;;;;;;;-2.02;73.79;97153.98;1804503;78;21410;-74
2021/01/31 04:13:04;;;;;;;26.30;17.37;;;;;;;-2.02;73.83;97156.61;1804263;79;21023;-75
2021/01/31 04:15:48;;;;;;;24.82;17.10;;;;;;;-2.03;73.88;97161.03;1804427;79;20928;-74
2021/01/31 04:18:18;;;;;;;22.27;17.77;;;;;;;-2.03;73.92;97157.55;1804396;79;20960;-73
2021/01/31 04:20:48;;;;;;;24.82;16.55;;;;;;;-2.04;73.92;97174.24;1804505;79;20904;-74
2021/01/31 04:23:16;;;;;;;22.70;17.10;;;;;;;-2.04;73.92;97172.93;1804427;79;21258;-74
2021/01/31 04:25:45;;;;;;;25.35;17.65;;;;;;;-2.05;73.92;97184.36;1804321;79;20964;-74
2021/01/31 04:28:22;;;;;;;21.77;16.07;;;;;;;-2.06;73.92;97183.98;1804391;79;20956;-74
2021/01/31 04:30:56;;;;;;;21.33;16.97;;;;;;;-2.08;74.00;97180.09;1804524;79;21343;-74
2021/01/31 04:33:25;;;;;;;22.90;16.73;;;;;;;-2.09;73.97;97181.00;1775413;79;21418;-75
2021/01/31 04:35:53;;;;;;;23.80;16.45;;;;;;;-2.11;73.80;97185.91;1804343;79;21424;-75
2021/01/31 04:38:21;;;;;;;19.87;15.45;;;;;;;-2.12;73.50;97180.27;1799845;78;20916;-75
2021/01/31 04:40:48;;;;;;;18.77;14.03;;;;;;;-2.13;72.37;97187.28;1798007;79;20913;-74
2021/01/31 04:43:17;;;;;;;15.75;11.50;;;;;;;-2.15;71.56;97184.33;1797984;79;21398;-74
2021/01/31 04:45:47;;;;;;;14.45;11.70;;;;;;;-2.19;70.27;97184.44;1798007;79;20916;-75
2021/01/31 04:48:49;;;;;;;16.02;13.00;;;;;;;-2.20;69.98;97190.61;1797881;79;21801;-74
2021/01/31 04:51:40;;;;;;;14.60;12.25;;;;;;;-2.22;69.99;97192.45;1797891;79;20917;-75
2021/01/31 04:54:28;;;;;;;19.60;14.05;;;;;;;-2.24;69.92;97199.55;1794637;79;20917;-74
2021/01/31 04:57:02;;;;;;;16.10;11.97;;;;;;;-2.27;70.03;97200.97;1797996;79;21390;-74
2021/01/31 04:59:42;;;;;;;17.12;12.65;;;;;;;-2.27;70.04;97207.55;1797864;79;20869;-75
2021/01/31 05:02:33;;;;;;;16.70;11.75;;;;;;;-2.28;70.14;97207.61;1797909;79;21358;-75
2021/01/31 05:05:01;;;;;;;13.03;10.00;;;;;;;-2.28;70.23;97215.50;1797964;79;20928;-74
2021/01/31 05:07:42;;;;;;;13.32;9.60;;;;;;;-2.30;69.44;97221.25;1797912;79;20917;-74
2021/01/31 05:10:13;;;;;;;12.07;9.68;;;;;;;-2.30;69.55;97223.44;1797831;79;20902;-74
2021/01/31 05:12:57;;;;;;;15.10;10.58;;;;;;;-2.33;69.18;97220.92;1797908;79;21028;-75
2021/01/31 05:15:30;;;;;;;14.95;10.48;;;;;;;-2.32;69.63;97235.77;1797958;79;21632;-74
2021/01/31 05:17:59;;;;;;;10.40;9.23;;;;;;;-2.33;69.64;97231.45;1797916;79;21241;-75
2021/01/31 05:20:30;;;;;;;13.83;11.28;;;;;;;-2.34;69.51;97240.23;1797992;79;20940;-75
2021/01/31 05:22:59;;;;;;;13.18;10.05;;;;;;;-2.34;69.44;97245.50;1797903;79;20913;-75
2021/01/31 05:25:35;;;;;;;12.95;10.03;;;;;;;-2.35;69.44;97245.08;1797944;79;21426;-75
2021/01/31 05:28:05;;;;;;;13.20;10.85;;;;;;;-2.39;68.05;97252.70;1797876;79;21431;-75
2021/01/31 05:30:36;;;;;;;15.32;10.88;;;;;;;-2.43;67.73;97257.22;1797946;79;20933;-74
2021/01/31 05:33:12;;;;;;;13.32;10.20;;;;;;;-2.46;67.91;97259.96;1797880;79;21434;-74
2021/01/31 05:35:48;;;;;;;15.28;11.10;;;;;;;-2.46;68.05;97259.08;1797777;79;20929;-74
2021/01/31 05:38:38;;;;;;;13.95;10.90;;;;;;;-2.49;68.22;97271.02;1782408;79;20936;-75
2021/01/31 05:41:44;;;;;;;13.72;10.65;;;;;;;-2.47;68.28;97271.38;1837055;77;28000;-74
2021/01/31 05:44:25;;;;;;;12.28;9.58;;;;;;;-2.52;68.58;97268.06;1809715;79;21354;-76
2021/01/31 05:47:02;;;;;;;14.80;11.57;;;;;;;-2.55;68.40;97279.53;1809425;79;21622;-74
2021/01/31 05:49:45;;;;;;;16.10;9.95;;;;;;;-2.56;68.69;97283.06;1779525;79;20972;-74
2021/01/31 05:52:27;;;;;;;12.15;9.38;;;;;;;-2.57;68.45;97285.31;1809755;79;20893;-74
2021/01/31 05:54:56;;;;;;;16.63;10.73;;;;;;;-2.58;68.28;97284.89;1809788;79;20964;-75
2021/01/31 05:57:33;;;;;;;11.18;10.05;;;;;;;-2.58;68.55;97290.16;1809899;79;20932;-74
2021/01/31 06:00:19;;;;;;;13.80;10.20;;;;;;;-2.60;68.74;97295.93;1809965;79;21428;-74
2021/01/31 06:03:04;;;;;;;12.23;9.65;;;;;;;-2.60;68.51;97299.88;1810080;79;21398;-74
2021/01/31 06:05:32;;;;;;;12.15;8.43;;;;;;;-2.61;68.66;97298.61;1809443;79;20917;-75
2021/01/31 06:08:27;;;;;;;11.83;8.78;;;;;;;-2.64;68.13;97302.19;1809573;79;20960;-75
2021/01/31 06:11:00;;;;;;;9.10;7.35;;;;;;;-2.63;68.35;97303.07;1809764;79;21009;-75
2021/01/31 06:13:29;;;;;;;16.32;8.65;;;;;;;-2.63;68.00;97314.44;1809611;79;21312;-76
2021/01/31 06:15:58;;;;;;;12.07;8.45;;;;;;;-2.62;68.19;97315.28;1809573;79;21362;-74
2021/01/31 06:18:37;;;;;;;12.40;8.83;;;;;;;-2.63;67.76;97321.47;1809574;79;20940;-75
2021/01/31 06:21:15;;;;;;;10.30;8.05;;;;;;;-2.62;67.56;97320.54;1809637;79;21433;-75
2021/01/31 06:23:47;;;;;;;19.85;12.28;;;;;;;-2.64;67.32;97325.85;1809670;79;20908;-75
2021/01/31 06:26:23;;;;;;;14.68;10.15;;;;;;;-2.63;67.35;97327.58;1809681;79;22735;-75
2021/01/31 06:29:00;;;;;;;18.05;12.75;;;;;;;-2.62;67.59;97332.38;1809568;79;20956;-76
2021/01/31 06:32:06;;;;;;;11.33;8.10;;;;;;;-2.60;67.37;97334.05;1809616;79;20940;-75
2021/01/31 06:34:34;;;;;;;9.35;6.75;;;;;;;-2.58;67.46;97339.25;1809545;79;20865;-75
2021/01/31 06:37:17;;;;;;;11.25;8.93;;;;;;;-2.58;67.04;97334.00;1809556;79;21453;-76
2021/01/31 06:40:09;;;;;;;10.93;8.55;;;;;;;-2.57;66.97;97343.15;1806605;79;21792;-75
2021/01/31 06:43:24;;;;;;;13.58;8.60;;;;;;;-2.56;66.79;97337.42;1797771;79;21536;-77
2021/01/31 06:46:08;;;;;;;22.17;12.37;;;;;;;-2.52;66.93;97345.62;1798484;79;20865;-74
2021/01/31 06:49:13;;;;;;;16.02;10.30;;;;;;;-2.52;66.51;97344.74;1798464;79;20980;-76
2021/01/31 06:52:11;;;;;;;20.75;12.15;;;;;;;-2.50;66.84;97350.83;1798151;79;20921;-76
2021/01/31 06:55:19;;;;;;;47.03;19.12;;;;;;;-2.46;66.61;97352.00;1837088;78;27980;-76
2021/01/31 06:58:13;;;;;;;43.50;18.70;;;;;;;-2.51;66.70;97351.73;1809586;79;20952;-76
2021/01/31 07:01:26;;;;;;;35.75;16.15;;;;;;;-2.50;66.51;97362.66;1809698;79;22071;-75
2021/01/31 07:04:28;;;;;;;28.10;13.45;;;;;;;-2.50;66.80;97367.92;1809636;79;21449;-76
2021/01/31 07:07:21;;;;;;;39.42;17.80;;;;;;;-2.52;66.30;97373.66;1809604;79;20917;-76
2021/01/31 07:10:32;;;;;;;14.75;9.03;;;;;;;-2.52;66.57;97364.47;1809518;79;21015;-76
2021/01/31 07:13:24;;;;;;;24.15;14.00;;;;;;;-2.52;66.69;97367.09;1809568;79;20988;-78
2021/01/31 07:16:19;;;;;;;29.15;15.23;;;;;;;-2.53;66.60;97378.08;1809604;79;21428;-77
2021/01/31 07:19:28;;;;;;;17.45;10.68;;;;;;;-2.52;66.72;97378.92;1809557;79;21011;-77
2021/01/31 07:22:08;;;;;;;11.57;9.20;;;;;;;-2.56;66.60;97381.66;1809513;79;20912;-77
2021/01/31 07:24:55;;;;;;;8.25;6.45;;;;;;;-2.57;65.87;97387.84;1809683;79;20921;-78
2021/01/31 07:27:48;;;;;;;8.18;5.80;;;;;;;-2.57;65.78;97381.27;1808869;79;20957;-77
2021/01/31 07:30:25;;;;;;;9.73;6.33;;;;;;;-2.55;65.75;97395.22;1809628;79;22284;-77
2021/01/31 07:33:15;;;;;;;9.43;7.12;;;;;;;-2.53;65.87;97392.53;1809387;79;20984;-76
2021/01/31 07:36:29;;;;;;;14.58;10.25;;;;;;;-2.49;66.16;97389.34;1809439;79;20932;-76
2021/01/31 07:39:10;;;;;;;12.33;9.00;;;;;;;-2.48;65.96;97395.02;1809662;79;21036;-75
2021/01/31 07:41:44;;;;;;;12.60;9.78;;;;;;;-2.44;66.05;97401.91;1809612;79;20964;-77
2021/01/31 07:44:12;;;;;;;13.15;10.13;;;;;;;-2.42;66.12;97401.39;1808860;79;22145;-76
2021/01/31 07:46:44;;;;;;;13.83;10.00;;;;;;;-2.39;66.30;97402.61;1769286;79;21430;-76
2021/01/31 07:49:11;;;;;;;14.30;10.95;;;;;;;-2.34;66.26;97398.04;1809603;79;20984;-76
2021/01/31 07:51:58;;;;;;;14.13;11.18;;;;;;;-2.29;66.04;97398.73;1809452;79;20928;-76
2021/01/31 07:54:31;;;;;;;8.43;6.80;;;;;;;-2.25;66.38;97400.36;1814044;79;20893;-76
2021/01/31 07:57:38;;;;;;;10.70;7.05;;;;;;;-2.19;66.15;97404.57;1816190;79;21182;-78
2021/01/31 08:00:18;;;;;;;7.50;5.45;;;;;;;-2.11;66.12;97400.33;1816085;79;20976;-78
2021/01/31 08:02:50;;;;;;;6.15;4.92;;;;;;;-2.04;65.87;97407.96;1816133;79;20936;-78
2021/01/31 08:05:54;;;;;;;8.18;6.90;;;;;;;-1.98;65.21;97410.85;1815445;79;21591;-78
2021/01/31 08:08:51;;;;;;;8.03;6.45;;;;;;;-1.92;65.62;97415.05;1815575;79;20980;-77
2021/01/31 08:11:30;;;;;;;7.30;5.65;;;;;;;-1.88;64.53;97412.23;1815488;79;22466;-79
2021/01/31 08:14:00;;;;;;;9.93;6.83;;;;;;;-1.87;64.77;97415.28;1815240;79;20991;-79
2021/01/31 08:16:53;;;;;;;7.58;5.92;;;;;;;-1.87;64.50;97418.38;1815660;79;21015;-76
2021/01/31 08:19:29;;;;;;;6.78;5.00;;;;;;;-1.87;64.37;97415.28;1815665;79;20959;-76
2021/01/31 08:22:11;;;;;;;7.33;5.70;;;;;;;-1.90;64.15;97425.91;1815517;79;21576;-79
2021/01/31 08:25:03;;;;;;;7.85;5.72;;;;;;;-1.92;64.41;97430.38;1815682;79;21755;-77
2021/01/31 08:27:50;;;;;;;9.30;6.20;;;;;;;-1.96;64.19;97438.43;1815611;79;20893;-78
2021/01/31 08:30:32;;;;;;;5.72;4.40;;;;;;;-1.97;64.44;97439.33;1815639;79;20932;-77
2021/01/31 08:33:30;;;;;;;7.78;5.75;;;;;;;-1.97;64.71;97443.28;1815482;79;21015;-76
2021/01/31 08:36:14;;;;;;;6.08;5.17;;;;;;;-1.96;64.77;97432.70;1815586;79;21468;-80
2021/01/31 08:38:45;;;;;;;5.80;4.65;;;;;;;-1.93;64.50;97433.91;1810782;79;21672;-76
2021/01/31 08:41:37;;;;;;;6.45;5.30;;;;;;;-1.90;64.20;97443.02;1815641;79;20936;-77
2021/01/31 08:44:14;;;;;;;7.40;5.67;;;;;;;-1.89;64.09;97442.12;1815423;79;20999;-76
2021/01/31 08:47:02;;;;;;;8.08;5.42;;;;;;;-1.86;64.07;97448.59;1815596;79;21433;-78
2021/01/31 08:49:30;;;;;;;7.28;5.75;;;;;;;-1.84;63.77;97452.02;1815568;79;20964;-77
2021/01/31 08:52:12;;;;;;;7.62;5.70;;;;;;;-1.79;63.62;97442.65;1815544;78;21350;-78
2021/01/31 08:54:39;;;;;;;8.00;5.30;;;;;;;-1.75;63.68;97445.59;1804512;79;20988;-77
2021/01/31 08:57:12;;;;;;;7.92;5.83;;;;;;;-1.69;63.96;97451.95;1797708;79;21008;-76
2021/01/31 08:59:48;;;;;;;9.05;5.80;;;;;;;-1.70;63.26;97438.84;1797766;79;20957;-75
2021/01/31 09:02:21;;;;;;;6.75;5.55;;;;;;;-1.68;63.32;97446.22;1798048;79;21316;-77
2021/01/31 09:05:02;;;;;;;6.72;6.03;;;;;;;-1.65;63.25;97447.44;1797844;79;21359;-77
2021/01/31 09:07:39;;;;;;;9.60;6.30;;;;;;;-1.62;63.29;97449.95;1796280;79;21011;-78
2021/01/31 09:10:11;;;;;;;8.78;5.78;;;;;;;-1.58;63.29;97454.18;1797930;79;20896;-76
2021/01/31 09:12:41;;;;;;;7.15;4.80;;;;;;;-1.55;62.81;97446.17;1797759;79;20972;-79
2021/01/31 09:15:24;;;;;;;6.40;4.90;;;;;;;-1.52;62.64;97446.06;1798040;79;21648;-77
2021/01/31 09:18:11;;;;;;;6.60;5.03;;;;;;;-1.51;62.59;97447.80;1797914;79;21439;-76
2021/01/31 09:20:42;;;;;;;8.18;5.55;;;;;;;-1.47;62.65;97445.90;1794897;79;20988;-76
2021/01/31 09:23:15;;;;;;;7.25;6.03;;;;;;;-1.43;62.80;97440.05;1798006;79;21001;-77
2021/01/31 09:25:42;;;;;;;7.87;6.28;;;;;;;-1.38;63.08;97444.25;1798153;79;20996;-76
2021/01/31 09:28:24;;;;;;;6.47;5.45;;;;;;;-1.33;62.92;97442.77;1798042;79;21339;-76
2021/01/31 09:30:59;;;;;;;7.58;5.25;;;;;;;-1.27;62.48;97450.45;1797760;79;21358;-76
2021/01/31 09:33:42;;;;;;;9.30;6.50;;;;;;;-1.22;62.68;97436.63;1752220;79;20953;-76
2021/01/31 09:36:21;;;;;;;7.10;6.03;;;;;;;-1.18;62.63;97440.88;1798039;79;20965;-77
2021/01/31 09:38:53;;;;;;;6.85;5.65;;;;;;;-1.15;62.56;97444.72;1798028;79;21379;-76
2021/01/31 09:41:25;;;;;;;7.33;5.08;;;;;;;-1.10;61.99;97445.40;1797975;79;20952;-78
2021/01/31 09:44:02;;;;;;;6.65;5.12;;;;;;;-1.02;61.57;97449.53;1797921;79;21504;-77
2021/01/31 09:46:33;;;;;;;9.20;5.15;;;;;;;-0.95;61.29;97448.36;1797917;79;20972;-77
2021/01/31 09:49:24;;;;;;;6.33;5.25;;;;;;;-0.90;60.84;97443.77;1797828;79;20941;-76
2021/01/31 09:51:56;;;;;;;6.60;5.75;;;;;;;-0.80;61.38;97450.41;1797881;79;20989;-77
2021/01/31 09:54:34;;;;;;;9.88;6.83;;;;;;;-0.69;61.44;97446.05;1803222;79;20924;-77
2021/01/31 09:57:10;;;;;;;7.58;5.78;;;;;;;-0.59;60.95;97446.06;1815391;79;21846;-77
2021/01/31 09:59:39;;;;;;;8.03;6.35;;;;;;;-0.52;60.01;97444.06;1814328;79;21003;-76
2021/01/31 10:02:21;;;;;;;7.87;5.47;;;;;;;-0.49;59.69;97441.30;1815424;79;20980;-73
2021/01/31 10:05:02;;;;;;;7.92;6.40;;;;;;;-0.48;59.75;97435.09;1815441;79;20962;-73
2021/01/31 10:07:35;;;;;;;7.42;6.65;;;;;;;-0.49;59.97;97438.67;1814633;79;21389;-74
2021/01/31 10:10:35;;;;;;;7.20;5.83;;;;;;;-0.54;60.07;97445.88;1815175;78;21618;-74
2021/01/31 10:13:24;;;;;;;6.37;5.20;;;;;;;-0.55;59.60;97442.87;1815211;79;20976;-74
2021/01/31 10:15:57;;;;;;;6.62;5.92;;;;;;;-0.57;59.89;97447.33;1815433;79;20972;-75
2021/01/31 10:18:34;;;;;;;9.70;7.03;;;;;;;-0.58;59.83;97439.03;1815381;79;20983;-74
2021/01/31 10:21:30;;;;;;;8.10;5.62;;;;;;;-0.58;59.45;97450.43;1815437;79;21417;-73
2021/01/31 10:24:29;;;;;;;6.05;4.85;;;;;;;-0.59;59.17;97453.98;1815401;79;21192;-74
2021/01/31 10:27:05;;;;;;;6.28;5.30;;;;;;;-0.62;58.94;97458.52;1815365;79;21326;-74
2021/01/31 10:29:33;;;;;;;7.90;5.87;;;;;;;-0.63;59.45;97462.06;1815417;79;20992;-74
2021/01/31 10:32:20;;;;;;;7.45;5.85;;;;;;;-0.63;59.34;97454.16;1815496;78;21453;-73
2021/01/31 10:34:47;;;;;;;7.40;6.08;;;;;;;-0.63;59.45;97453.72;1815310;79;21346;-72
2021/01/31 10:37:34;;;;;;;7.53;5.87;;;;;;;-0.62;59.77;97450.61;1815476;78;21188;-74
2021/01/31 10:40:18;;;;;;;5.35;4.60;;;;;;;-0.57;59.48;97453.48;1842270;78;28478;-73
2021/01/31 10:42:50;;;;;;;8.35;5.12;;;;;;;-0.61;59.19;97459.78;1813580;79;20912;-73
2021/01/31 10:45:23;;;;;;;8.58;5.97;;;;;;;-0.62;59.02;97458.52;1817578;79;21802;-74
2021/01/31 10:47:52;;;;;;;7.05;5.12;;;;;;;-0.68;58.31;97451.70;1817597;79;20900;-74
2021/01/31 10:50:22;;;;;;;8.70;6.00;;;;;;;-0.70;59.37;97465.88;1817571;79;20940;-74
2021/01/31 10:52:51;;;;;;;6.65;4.75;;;;;;;-0.73;59.44;97462.89;1817603;78;21021;-75
2021/01/31 10:55:23;;;;;;;6.30;4.65;;;;;;;-0.71;59.73;97466.80;1817445;79;20980;-75
2021/01/31 10:57:50;;;;;;;7.03;5.78;;;;;;;-0.69;59.42;97465.83;1817519;79;21122;-74
2021/01/31 11:00:20;;;;;;;7.37;5.90;;;;;;;-0.68;58.87;97464.03;1817794;79;20923;-75
2021/01/31 11:02:49;;;;;;;7.25;5.35;;;;;;;-0.66;58.61;97468.78;1817855;79;21442;-74
2021/01/31 11:05:18;;;;;;;7.28;5.33;;;;;;;-0.61;58.91;97475.61;1817827;79;21544;-74
2021/01/31 11:07:48;;;;;;;8.83;6.72;;;;;;;-0.57;58.38;97475.02;1817857;79;21457;-75
2021/01/31 11:10:17;;;;;;;9.55;6.55;;;;;;;-0.52;58.10;97474.84;1817707;78;21327;-74
2021/01/31 11:12:44;;;;;;;6.72;5.28;;;;;;;-0.47;58.02;97475.50;1817661;79;21031;-74
2021/01/31 11:15:14;;;;;;;8.88;5.30;;;;;;;-0.46;57.63;97470.17;1817602;79;20991;-73
2021/01/31 11:17:42;;;;;;;7.12;5.83;;;;;;;-0.40;57.92;97474.36;1817376;78;20999;-75
2021/01/31 11:20:09;;;;;;;6.90;5.40;;;;;;;-0.38;58.32;97472.06;1784275;79;21283;-74
2021/01/31 11:22:40;;;;;;;5.92;4.65;;;;;;;-0.33;57.78;97468.36;1817627;79;21358;-75
2021/01/31 11:25:10;;;;;;;5.75;4.72;;;;;;;-0.30;57.16;97472.20;1817480;79;21010;-75
2021/01/31 11:27:40;;;;;;;7.62;4.70;;;;;;;-0.28;57.61;97476.98;1817276;79;20923;-74
2021/01/31 11:30:11;;;;;;;5.65;4.67;;;;;;;-0.32;56.47;97472.26;1817530;79;20924;-73
2021/01/31 11:32:39;;;;;;;5.30;4.60;;;;;;;-0.35;56.75;97472.85;1817470;79;20932;-74
2021/01/31 11:35:07;;;;;;;5.22;3.98;;;;;;;-0.39;57.24;97478.25;1817438;79;21841;-73
2021/01/31 11:37:34;;;;;;;8.13;5.87;;;;;;;-0.43;57.14;97475.80;1817507;79;20975;-73
2021/01/31 11:40:06;;;;;;;7.55;5.97;;;;;;;-0.45;57.07;97473.22;1815674;79;21004;-74
2021/01/31 11:42:33;;;;;;;9.15;5.87;;;;;;;-0.47;56.95;97468.47;1815519;79;21540;-74
2021/01/31 11:45:06;;;;;;;6.87;5.30;;;;;;;-0.46;57.21;97470.17;1815533;79;20980;-74
2021/01/31 11:47:35;;;;;;;7.10;4.20;;;;;;;-0.46;57.11;97470.17;1815672;79;21353;-76
2021/01/31 11:50:07;;;;;;;6.75;5.70;;;;;;;-0.46;57.50;97469.32;1815236;79;20976;-74
2021/01/31 11:52:35;;;;;;;6.72;5.62;;;;;;;-0.46;57.10;97474.12;1814939;79;20928;-74
2021/01/31 11:55:04;;;;;;;7.40;5.65;;;;;;;-0.46;57.38;97470.17;1814896;79;21453;-74
2021/01/31 11:57:32;;;;;;;51.48;26.15;;;;;;;-0.44;57.67;97467.47;1814863;79;21015;-75
2021/01/31 12:00:00;;;;;;;42.08;19.70;;;;;;;-0.44;57.49;97470.11;1814890;79;21877;-74
2021/01/31 12:02:29;;;;;;;17.70;11.45;;;;;;;-0.46;57.06;97464.89;1814828;78;20924;-73
2021/01/31 12:04:59;;;;;;;31.87;18.65;;;;;;;-0.51;57.09;97466.86;1814726;79;20913;-74
2021/01/31 12:07:27;;;;;;;59.30;29.32;;;;;;;-0.54;56.90;97466.98;1814981;79;21299;-74
2021/01/31 12:09:56;;;;;;;35.55;16.70;;;;;;;-0.56;57.10;97470.16;1814875;79;20924;-75